Lady Maria Luisa — 3ENE4 — position and weather

sailwx.info

Track history (hours):
 
Tides and Currents Weather Stations Pressure Air Temp Water Temp Dewpoint Dewpoint Depression Visibility Wind Speed Wind Dir Waves Ship Positions

Lady Maria Luisa

Last reported at 2015-Jul-28 01:33 UTC. Time now 2015-Jul-28 03:31 UTC.
Position N 32°02' E 119°56'.

Length 224 m; draft 10.3 m.

Type: Cargo ship. MMSI: 355777000.

Date/timePositionNaut miles runAvg speedWind from/ knotsBaromVisibWave heightAir tempDewpointWater temp
2015-Jul-28 01:33N 32°02' E 119°56'0 0.0
2015-Jul-27 23:20N 32°02' E 119°56'0 0.0
2015-Jul-27 18:15N 32°02' E 119°56'0 0.0
2015-Jul-27 17:27N 32°02' E 119°56'0 0.0
2015-Jul-27 14:21N 32°02' E 119°56'0 0.0
2015-Jul-27 13:03N 32°02' E 119°56'0 0.0
2015-Jul-27 12:33N 32°02' E 119°56'0 0.0
2015-Jul-27 02:09N 32°02' E 119°56'0 0.0
2015-Jul-27 00:21N 32°02' E 119°56'0 0.0
2015-Jul-26 23:33N 32°02' E 119°56'0 0.0
2015-Jul-26 21:27N 32°02' E 119°56'0 0.0
2015-Jul-26 18:21N 32°02' E 119°56'0 0.0
2015-Jul-26 16:33N 32°02' E 119°56'0 0.0
2015-Jul-26 14:27N 32°02' E 119°56'0 0.0
2015-Jul-25 21:21N 32°02' E 119°56'0 0.0
2015-Jul-25 06:15N 32°02' E 119°56'0 0.0
2015-Jul-24 22:27N 32°02' E 119°56'0 0.0
2015-Jul-24 21:09N 32°02' E 119°56'0 0.0
2015-Jul-24 07:09N 32°02' E 119°56'0 0.0
2015-Jul-23 12:33N 32°02' E 119°57'8 7.7
2015-Jul-23 11:31N 31°57' E 120°04'9 8.9
2015-Jul-23 10:33N 31°56' E 120°14'9 8.2
2015-Jul-23 09:31N 31°58' E 120°24'4 4.0
2015-Jul-23 08:33N 32°01' E 120°27'9 8.6
2015-Jul-23 07:32N 31°60' E 120°37'9 8.8
2015-Jul-23 06:33N 32°01' E 120°47'9 8.5
2015-Jul-23 05:33N 31°54' E 120°53'8 7.9
2015-Jul-23 04:33N 31°47' E 120°57'7 7.5
2015-Jul-23 03:33N 31°45' E 121°06'9 8.7
2015-Jul-23 02:33N 31°39' E 121°13'1 0.6
2015-Jul-23 01:33N 31°39' E 121°14'0 0.1
2015-Jul-23 00:33N 31°39' E 121°14'0 0.1
2015-Jul-22 23:33N 31°39' E 121°14'6 5.7
2015-Jul-22 22:33N 31°35' E 121°18'1211.7
2015-Jul-22 21:33N 31°27' E 121°29'10 9.9
2015-Jul-22 20:33N 31°22' E 121°39'1010.4
2015-Jul-22 19:33N 31°17' E 121°50'1111.5
2015-Jul-22 18:33N 31°14' E 122°03'1211.9
2015-Jul-22 17:33N 31°08' E 122°15'10 9.9
2015-Jul-22 16:33N 31°07' E 122°26'  
Track history (hours):
 
Tides and Currents Weather Stations Pressure Air Temp Water Temp Dewpoint Dewpoint Depression Visibility Wind Speed Wind Dir Waves Ship Positions

Lady Maria Luisa

Last reported at 2015-Jul-28 01:33 UTC. Time now 2015-Jul-28 03:31 UTC.
Position N 32°02' E 119°56'.

Length 224 m; draft 10.3 m.

Type: Cargo ship. MMSI: 355777000.

Date/timePositionNaut miles runAvg speedWind from/ knotsBaromVisibWave heightAir tempDewpointWater temp
2015-Jul-28 01:33N 32°02' E 119°56'0 0.0
2015-Jul-27 23:20N 32°02' E 119°56'0 0.0
2015-Jul-27 18:15N 32°02' E 119°56'0 0.0
2015-Jul-27 17:27N 32°02' E 119°56'0 0.0
2015-Jul-27 14:21N 32°02' E 119°56'0 0.0
2015-Jul-27 13:03N 32°02' E 119°56'0 0.0
2015-Jul-27 12:33N 32°02' E 119°56'0 0.0
2015-Jul-27 02:09N 32°02' E 119°56'0 0.0
2015-Jul-27 00:21N 32°02' E 119°56'0 0.0
2015-Jul-26 23:33N 32°02' E 119°56'0 0.0
2015-Jul-26 21:27N 32°02' E 119°56'0 0.0
2015-Jul-26 18:21N 32°02' E 119°56'0 0.0
2015-Jul-26 16:33N 32°02' E 119°56'0 0.0
2015-Jul-26 14:27N 32°02' E 119°56'0 0.0
2015-Jul-25 21:21N 32°02' E 119°56'0 0.0
2015-Jul-25 06:15N 32°02' E 119°56'0 0.0
2015-Jul-24 22:27N 32°02' E 119°56'0 0.0
2015-Jul-24 21:09N 32°02' E 119°56'0 0.0
2015-Jul-24 07:09N 32°02' E 119°56'0 0.0
2015-Jul-23 12:33N 32°02' E 119°57'8 7.7
2015-Jul-23 11:31N 31°57' E 120°04'9 8.9
2015-Jul-23 10:33N 31°56' E 120°14'9 8.2
2015-Jul-23 09:31N 31°58' E 120°24'4 4.0
2015-Jul-23 08:33N 32°01' E 120°27'9 8.6
2015-Jul-23 07:32N 31°60' E 120°37'9 8.8
2015-Jul-23 06:33N 32°01' E 120°47'9 8.5
2015-Jul-23 05:33N 31°54' E 120°53'8 7.9
2015-Jul-23 04:33N 31°47' E 120°57'7 7.5
2015-Jul-23 03:33N 31°45' E 121°06'9 8.7
2015-Jul-23 02:33N 31°39' E 121°13'1 0.6
2015-Jul-23 01:33N 31°39' E 121°14'0 0.1
2015-Jul-23 00:33N 31°39' E 121°14'0 0.1
2015-Jul-22 23:33N 31°39' E 121°14'6 5.7
2015-Jul-22 22:33N 31°35' E 121°18'1211.7
2015-Jul-22 21:33N 31°27' E 121°29'10 9.9
2015-Jul-22 20:33N 31°22' E 121°39'1010.4
2015-Jul-22 19:33N 31°17' E 121°50'1111.5
2015-Jul-22 18:33N 31°14' E 122°03'1211.9
2015-Jul-22 17:33N 31°08' E 122°15'10 9.9
2015-Jul-22 16:33N 31°07' E 122°26'  

Dump ship's entire track history